sensor_id;sensor_type;location;lat;lon;timestamp;P1;durP1;ratioP1;P2;durP2;ratioP2
65936;SDS011;52707;52.086;5.418;2023-03-14T00:01:20;23.80;;;5.72;;
65936;SDS011;52707;52.086;5.418;2023-03-14T00:03:46;19.60;;;4.43;;
65936;SDS011;52707;52.086;5.418;2023-03-14T00:06:13;26.27;;;4.60;;
65936;SDS011;52707;52.086;5.418;2023-03-14T00:08:40;20.42;;;4.50;;
65936;SDS011;52707;52.086;5.418;2023-03-14T00:11:10;23.52;;;5.03;;
65936;SDS011;52707;52.086;5.418;2023-03-14T00:13:37;20.48;;;4.80;;
65936;SDS011;52707;52.086;5.418;2023-03-14T00:16:04;26.38;;;4.90;;
65936;SDS011;52707;52.086;5.418;2023-03-14T00:18:31;24.48;;;4.68;;
65936;SDS011;52707;52.086;5.418;2023-03-14T00:21:01;20.98;;;4.47;;
65936;SDS011;52707;52.086;5.418;2023-03-14T00:23:28;25.50;;;4.73;;
65936;SDS011;52707;52.086;5.418;2023-03-14T00:25:58;24.20;;;4.50;;
65936;SDS011;52707;52.086;5.418;2023-03-14T00:28:24;14.57;;;2.97;;
65936;SDS011;52707;52.086;5.418;2023-03-14T00:30:51;24.40;;;4.28;;
65936;SDS011;52707;52.086;5.418;2023-03-14T00:33:17;16.42;;;3.10;;
65936;SDS011;52707;52.086;5.418;2023-03-14T00:35:51;15.50;;;3.70;;
65936;SDS011;52707;52.086;5.418;2023-03-14T00:38:17;17.90;;;3.53;;
65936;SDS011;52707;52.086;5.418;2023-03-14T00:40:44;17.70;;;3.80;;
65936;SDS011;52707;52.086;5.418;2023-03-14T00:43:10;15.88;;;3.70;;
65936;SDS011;52707;52.086;5.418;2023-03-14T00:45:36;20.67;;;3.60;;
65936;SDS011;52707;52.086;5.418;2023-03-14T00:48:02;22.83;;;3.45;;
65936;SDS011;52707;52.086;5.418;2023-03-14T00:50:29;19.20;;;3.53;;
65936;SDS011;52707;52.086;5.418;2023-03-14T00:52:55;20.48;;;3.53;;
65936;SDS011;52707;52.086;5.418;2023-03-14T00:55:21;14.68;;;2.75;;
65936;SDS011;52707;52.086;5.418;2023-03-14T00:57:48;20.23;;;3.15;;
65936;SDS011;52707;52.086;5.418;2023-03-14T01:00:14;18.17;;;2.85;;
65936;SDS011;52707;52.086;5.418;2023-03-14T01:02:40;16.45;;;2.33;;
65936;SDS011;52707;52.086;5.418;2023-03-14T01:05:07;15.20;;;4.38;;
65936;SDS011;52707;52.086;5.418;2023-03-14T01:07:36;15.82;;;2.20;;
65936;SDS011;52707;52.086;5.418;2023-03-14T01:10:04;8.90;;;1.88;;
65936;SDS011;52707;52.086;5.418;2023-03-14T01:12:30;17.17;;;2.75;;
65936;SDS011;52707;52.086;5.418;2023-03-14T01:14:57;13.20;;;2.00;;
65936;SDS011;52707;52.086;5.418;2023-03-14T01:17:23;10.48;;;2.20;;
65936;SDS011;52707;52.086;5.418;2023-03-14T01:19:50;14.32;;;2.60;;
65936;SDS011;52707;52.086;5.418;2023-03-14T01:22:16;15.50;;;2.67;;
65936;SDS011;52707;52.086;5.418;2023-03-14T01:24:42;14.45;;;2.50;;
65936;SDS011;52707;52.086;5.418;2023-03-14T01:27:09;10.60;;;2.22;;
65936;SDS011;52707;52.086;5.418;2023-03-14T01:29:35;10.30;;;2.05;;
65936;SDS011;52707;52.086;5.418;2023-03-14T01:32:02;14.65;;;1.88;;
65936;SDS011;52707;52.086;5.418;2023-03-14T01:34:29;13.48;;;1.95;;
65936;SDS011;52707;52.086;5.418;2023-03-14T01:36:55;11.70;;;2.40;;
65936;SDS011;52707;52.086;5.418;2023-03-14T01:39:22;13.57;;;2.05;;
65936;SDS011;52707;52.086;5.418;2023-03-14T01:41:48;11.88;;;1.83;;
65936;SDS011;52707;52.086;5.418;2023-03-14T01:44:14;13.18;;;2.33;;
65936;SDS011;52707;52.086;5.418;2023-03-14T01:46:41;19.23;;;2.72;;
65936;SDS011;52707;52.086;5.418;2023-03-14T01:49:27;11.50;;;2.45;;
65936;SDS011;52707;52.086;5.418;2023-03-14T01:52:02;12.75;;;2.03;;
65936;SDS011;52707;52.086;5.418;2023-03-14T01:57:15;16.98;;;2.83;;
65936;SDS011;52707;52.086;5.418;2023-03-14T01:59:43;16.55;;;2.75;;
65936;SDS011;52707;52.086;5.418;2023-03-14T02:02:11;10.55;;;2.22;;
65936;SDS011;52707;52.086;5.418;2023-03-14T02:04:38;13.63;;;2.53;;
65936;SDS011;52707;52.086;5.418;2023-03-14T02:07:12;11.50;;;2.30;;
65936;SDS011;52707;52.086;5.418;2023-03-14T02:09:39;15.10;;;2.20;;
65936;SDS011;52707;52.086;5.418;2023-03-14T02:12:07;19.42;;;2.47;;
65936;SDS011;52707;52.086;5.418;2023-03-14T02:14:34;18.45;;;3.17;;
65936;SDS011;52707;52.086;5.418;2023-03-14T02:17:02;13.20;;;2.40;;
65936;SDS011;52707;52.086;5.418;2023-03-14T02:22:09;8.60;;;1.92;;
65936;SDS011;52707;52.086;5.418;2023-03-14T02:24:51;7.15;;;2.15;;
65936;SDS011;52707;52.086;5.418;2023-03-14T02:27:22;14.43;;;1.63;;
65936;SDS011;52707;52.086;5.418;2023-03-14T02:29:56;14.68;;;2.08;;
65936;SDS011;52707;52.086;5.418;2023-03-14T02:32:23;13.68;;;1.83;;
65936;SDS011;52707;52.086;5.418;2023-03-14T02:34:52;16.73;;;2.55;;
65936;SDS011;52707;52.086;5.418;2023-03-14T02:37:21;12.03;;;2.00;;
65936;SDS011;52707;52.086;5.418;2023-03-14T02:39:48;7.97;;;2.00;;
65936;SDS011;52707;52.086;5.418;2023-03-14T02:42:15;11.07;;;2.40;;
65936;SDS011;52707;52.086;5.418;2023-03-14T02:44:55;22.73;;;3.08;;
65936;SDS011;52707;52.086;5.418;2023-03-14T02:47:27;10.60;;;2.30;;
65936;SDS011;52707;52.086;5.418;2023-03-14T02:49:55;12.75;;;2.70;;
65936;SDS011;52707;52.086;5.418;2023-03-14T02:52:24;9.65;;;2.60;;
65936;SDS011;52707;52.086;5.418;2023-03-14T02:54:50;9.18;;;2.53;;
65936;SDS011;52707;52.086;5.418;2023-03-14T02:57:17;10.00;;;2.60;;
65936;SDS011;52707;52.086;5.418;2023-03-14T02:59:43;17.70;;;2.92;;
65936;SDS011;52707;52.086;5.418;2023-03-14T03:02:09;21.48;;;3.45;;
65936;SDS011;52707;52.086;5.418;2023-03-14T03:04:35;11.68;;;2.80;;
65936;SDS011;52707;52.086;5.418;2023-03-14T03:07:02;11.80;;;2.78;;
65936;SDS011;52707;52.086;5.418;2023-03-14T03:09:28;17.10;;;3.22;;
65936;SDS011;52707;52.086;5.418;2023-03-14T03:11:54;13.63;;;2.78;;
65936;SDS011;52707;52.086;5.418;2023-03-14T03:14:21;13.18;;;2.85;;
65936;SDS011;52707;52.086;5.418;2023-03-14T03:16:47;13.57;;;2.85;;
65936;SDS011;52707;52.086;5.418;2023-03-14T03:19:14;10.50;;;2.63;;
65936;SDS011;52707;52.086;5.418;2023-03-14T03:21:41;11.15;;;2.85;;
65936;SDS011;52707;52.086;5.418;2023-03-14T03:24:08;14.55;;;2.78;;
65936;SDS011;52707;52.086;5.418;2023-03-14T03:26:34;10.45;;;2.45;;
65936;SDS011;52707;52.086;5.418;2023-03-14T03:29:01;19.27;;;2.90;;
65936;SDS011;52707;52.086;5.418;2023-03-14T03:31:27;10.40;;;2.60;;
65936;SDS011;52707;52.086;5.418;2023-03-14T03:33:54;11.65;;;2.70;;
65936;SDS011;52707;52.086;5.418;2023-03-14T03:36:23;16.42;;;2.60;;
65936;SDS011;52707;52.086;5.418;2023-03-14T03:38:50;9.20;;;2.30;;
65936;SDS011;52707;52.086;5.418;2023-03-14T03:41:17;15.82;;;2.88;;
65936;SDS011;52707;52.086;5.418;2023-03-14T03:43:43;17.73;;;2.55;;
65936;SDS011;52707;52.086;5.418;2023-03-14T03:46:09;18.75;;;2.75;;
65936;SDS011;52707;52.086;5.418;2023-03-14T03:48:36;22.33;;;3.17;;
65936;SDS011;52707;52.086;5.418;2023-03-14T03:51:02;15.45;;;2.33;;
65936;SDS011;52707;52.086;5.418;2023-03-14T03:53:29;22.23;;;3.00;;
65936;SDS011;52707;52.086;5.418;2023-03-14T03:55:59;10.98;;;2.28;;
65936;SDS011;52707;52.086;5.418;2023-03-14T03:58:25;16.27;;;2.92;;
65936;SDS011;52707;52.086;5.418;2023-03-14T04:00:51;16.50;;;3.10;;
65936;SDS011;52707;52.086;5.418;2023-03-14T04:03:18;12.02;;;2.25;;
65936;SDS011;52707;52.086;5.418;2023-03-14T04:05:44;16.60;;;2.85;;
65936;SDS011;52707;52.086;5.418;2023-03-14T04:08:10;14.85;;;2.90;;
65936;SDS011;52707;52.086;5.418;2023-03-14T04:10:37;15.95;;;3.20;;
65936;SDS011;52707;52.086;5.418;2023-03-14T04:13:03;11.63;;;2.50;;
65936;SDS011;52707;52.086;5.418;2023-03-14T04:15:30;17.05;;;3.45;;
65936;SDS011;52707;52.086;5.418;2023-03-14T04:17:57;8.93;;;1.90;;
65936;SDS011;52707;52.086;5.418;2023-03-14T04:20:23;13.90;;;3.03;;
65936;SDS011;52707;52.086;5.418;2023-03-14T04:22:50;16.75;;;2.80;;
65936;SDS011;52707;52.086;5.418;2023-03-14T04:25:16;16.38;;;2.25;;
65936;SDS011;52707;52.086;5.418;2023-03-14T04:27:43;13.73;;;2.20;;
65936;SDS011;52707;52.086;5.418;2023-03-14T04:30:09;15.15;;;2.33;;
65936;SDS011;52707;52.086;5.418;2023-03-14T04:32:38;13.00;;;2.63;;
65936;SDS011;52707;52.086;5.418;2023-03-14T04:35:04;10.98;;;2.40;;
65936;SDS011;52707;52.086;5.418;2023-03-14T04:37:31;22.15;;;2.63;;
65936;SDS011;52707;52.086;5.418;2023-03-14T04:39:57;14.52;;;3.28;;
65936;SDS011;52707;52.086;5.418;2023-03-14T04:42:23;12.95;;;2.70;;
65936;SDS011;52707;52.086;5.418;2023-03-14T04:44:50;15.70;;;3.17;;
65936;SDS011;52707;52.086;5.418;2023-03-14T04:47:16;13.82;;;2.35;;
65936;SDS011;52707;52.086;5.418;2023-03-14T04:49:42;13.50;;;2.60;;
65936;SDS011;52707;52.086;5.418;2023-03-14T04:52:09;11.45;;;2.35;;
65936;SDS011;52707;52.086;5.418;2023-03-14T04:54:35;15.07;;;3.40;;
65936;SDS011;52707;52.086;5.418;2023-03-14T04:57:02;14.80;;;3.15;;
65936;SDS011;52707;52.086;5.418;2023-03-14T04:59:28;17.65;;;3.40;;
65936;SDS011;52707;52.086;5.418;2023-03-14T05:01:54;15.93;;;3.38;;
65936;SDS011;52707;52.086;5.418;2023-03-14T05:04:21;14.60;;;3.10;;
65936;SDS011;52707;52.086;5.418;2023-03-14T05:06:47;14.68;;;2.55;;
65936;SDS011;52707;52.086;5.418;2023-03-14T05:09:13;8.13;;;2.40;;
65936;SDS011;52707;52.086;5.418;2023-03-14T05:11:41;18.80;;;3.30;;
65936;SDS011;52707;52.086;5.418;2023-03-14T05:14:07;11.20;;;2.10;;
65936;SDS011;52707;52.086;5.418;2023-03-14T05:16:33;11.82;;;3.08;;
65936;SDS011;52707;52.086;5.418;2023-03-14T05:19:00;16.58;;;2.58;;
65936;SDS011;52707;52.086;5.418;2023-03-14T05:21:27;13.20;;;2.40;;
65936;SDS011;52707;52.086;5.418;2023-03-14T05:23:53;10.07;;;2.65;;
65936;SDS011;52707;52.086;5.418;2023-03-14T05:26:20;22.40;;;2.78;;
65936;SDS011;52707;52.086;5.418;2023-03-14T05:28:46;16.25;;;2.85;;
65936;SDS011;52707;52.086;5.418;2023-03-14T05:31:12;14.65;;;2.72;;
65936;SDS011;52707;52.086;5.418;2023-03-14T05:33:39;14.40;;;3.22;;
65936;SDS011;52707;52.086;5.418;2023-03-14T05:36:06;10.02;;;3.28;;
65936;SDS011;52707;52.086;5.418;2023-03-14T05:38:32;10.75;;;2.78;;
65936;SDS011;52707;52.086;5.418;2023-03-14T05:40:59;12.70;;;3.25;;
65936;SDS011;52707;52.086;5.418;2023-03-14T05:43:25;8.07;;;3.08;;
65936;SDS011;52707;52.086;5.418;2023-03-14T05:45:51;15.98;;;3.28;;
65936;SDS011;52707;52.086;5.418;2023-03-14T05:48:18;8.75;;;3.45;;
65936;SDS011;52707;52.086;5.418;2023-03-14T05:50:44;7.97;;;3.20;;
65936;SDS011;52707;52.086;5.418;2023-03-14T05:53:10;13.48;;;4.20;;
65936;SDS011;52707;52.086;5.418;2023-03-14T05:55:37;7.53;;;3.75;;
65936;SDS011;52707;52.086;5.418;2023-03-14T05:58:03;16.38;;;4.50;;
65936;SDS011;52707;52.086;5.418;2023-03-14T06:00:29;14.55;;;4.13;;
65936;SDS011;52707;52.086;5.418;2023-03-14T06:02:56;12.32;;;4.45;;
65936;SDS011;52707;52.086;5.418;2023-03-14T06:05:22;10.75;;;4.15;;
65936;SDS011;52707;52.086;5.418;2023-03-14T06:07:49;9.98;;;4.10;;
65936;SDS011;52707;52.086;5.418;2023-03-14T06:10:15;10.02;;;4.20;;
65936;SDS011;52707;52.086;5.418;2023-03-14T06:12:41;16.02;;;4.47;;
65936;SDS011;52707;52.086;5.418;2023-03-14T06:15:08;9.93;;;4.50;;
65936;SDS011;52707;52.086;5.418;2023-03-14T06:17:34;14.05;;;4.30;;
65936;SDS011;52707;52.086;5.418;2023-03-14T06:20:00;12.55;;;5.22;;
65936;SDS011;52707;52.086;5.418;2023-03-14T06:22:27;11.40;;;5.03;;
65936;SDS011;52707;52.086;5.418;2023-03-14T06:24:53;14.70;;;5.35;;
65936;SDS011;52707;52.086;5.418;2023-03-14T06:27:19;12.73;;;5.63;;
65936;SDS011;52707;52.086;5.418;2023-03-14T06:29:46;12.57;;;5.47;;
65936;SDS011;52707;52.086;5.418;2023-03-14T06:32:12;14.38;;;6.63;;
65936;SDS011;52707;52.086;5.418;2023-03-14T06:34:38;13.27;;;5.90;;
65936;SDS011;52707;52.086;5.418;2023-03-14T06:37:05;12.30;;;5.90;;
65936;SDS011;52707;52.086;5.418;2023-03-14T06:39:31;18.83;;;6.60;;
65936;SDS011;52707;52.086;5.418;2023-03-14T06:41:58;18.88;;;6.53;;
65936;SDS011;52707;52.086;5.418;2023-03-14T06:44:24;8.52;;;4.25;;
65936;SDS011;52707;52.086;5.418;2023-03-14T06:46:51;8.38;;;3.13;;
65936;SDS011;52707;52.086;5.418;2023-03-14T06:49:17;4.63;;;1.90;;
65936;SDS011;52707;52.086;5.418;2023-03-14T06:51:43;7.03;;;1.70;;
65936;SDS011;52707;52.086;5.418;2023-03-14T06:54:10;4.00;;;1.35;;
65936;SDS011;52707;52.086;5.418;2023-03-14T06:56:36;2.42;;;0.70;;
65936;SDS011;52707;52.086;5.418;2023-03-14T06:59:02;2.05;;;0.60;;
65936;SDS011;52707;52.086;5.418;2023-03-14T07:01:29;2.22;;;0.63;;
65936;SDS011;52707;52.086;5.418;2023-03-14T07:03:56;2.25;;;0.60;;
65936;SDS011;52707;52.086;5.418;2023-03-14T07:06:22;2.05;;;0.73;;
65936;SDS011;52707;52.086;5.418;2023-03-14T07:08:49;4.82;;;0.85;;
65936;SDS011;52707;52.086;5.418;2023-03-14T07:11:15;3.90;;;0.70;;
65936;SDS011;52707;52.086;5.418;2023-03-14T07:13:41;1.73;;;0.68;;
65936;SDS011;52707;52.086;5.418;2023-03-14T07:16:08;3.92;;;1.15;;
65936;SDS011;52707;52.086;5.418;2023-03-14T07:18:34;2.78;;;0.80;;
65936;SDS011;52707;52.086;5.418;2023-03-14T07:21:01;2.50;;;0.80;;
65936;SDS011;52707;52.086;5.418;2023-03-14T07:23:27;4.97;;;1.50;;
65936;SDS011;52707;52.086;5.418;2023-03-14T07:25:53;7.47;;;1.20;;
65936;SDS011;52707;52.086;5.418;2023-03-14T07:28:20;4.65;;;1.50;;
65936;SDS011;52707;52.086;5.418;2023-03-14T07:30:46;5.30;;;1.30;;
65936;SDS011;52707;52.086;5.418;2023-03-14T07:33:13;4.35;;;1.02;;
65936;SDS011;52707;52.086;5.418;2023-03-14T07:35:39;5.20;;;1.45;;
65936;SDS011;52707;52.086;5.418;2023-03-14T07:38:06;5.72;;;1.25;;
65936;SDS011;52707;52.086;5.418;2023-03-14T07:40:32;3.88;;;1.27;;
65936;SDS011;52707;52.086;5.418;2023-03-14T07:42:58;2.35;;;1.33;;
65936;SDS011;52707;52.086;5.418;2023-03-14T07:45:25;3.92;;;0.90;;
65936;SDS011;52707;52.086;5.418;2023-03-14T07:47:53;6.70;;;1.00;;
65936;SDS011;52707;52.086;5.418;2023-03-14T07:50:26;1.33;;;0.77;;
65936;SDS011;52707;52.086;5.418;2023-03-14T07:52:53;2.03;;;0.55;;
65936;SDS011;52707;52.086;5.418;2023-03-14T07:55:20;4.05;;;0.88;;
65936;SDS011;52707;52.086;5.418;2023-03-14T07:57:46;4.57;;;0.82;;
65936;SDS011;52707;52.086;5.418;2023-03-14T08:00:13;1.67;;;0.70;;
65936;SDS011;52707;52.086;5.418;2023-03-14T08:02:41;4.25;;;0.90;;
65936;SDS011;52707;52.086;5.418;2023-03-14T08:05:07;2.78;;;0.88;;
65936;SDS011;52707;52.086;5.418;2023-03-14T08:07:34;4.15;;;0.82;;
65936;SDS011;52707;52.086;5.418;2023-03-14T08:10:00;5.65;;;0.95;;
65936;SDS011;52707;52.086;5.418;2023-03-14T08:12:27;2.55;;;1.13;;
65936;SDS011;52707;52.086;5.418;2023-03-14T08:14:53;5.15;;;0.88;;
65936;SDS011;52707;52.086;5.418;2023-03-14T08:17:19;8.80;;;1.40;;
65936;SDS011;52707;52.086;5.418;2023-03-14T08:19:46;5.03;;;1.00;;
65936;SDS011;52707;52.086;5.418;2023-03-14T08:22:12;5.93;;;1.17;;
65936;SDS011;52707;52.086;5.418;2023-03-14T08:24:38;8.30;;;1.20;;
65936;SDS011;52707;52.086;5.418;2023-03-14T08:27:05;9.35;;;1.30;;
65936;SDS011;52707;52.086;5.418;2023-03-14T08:29:34;9.30;;;1.23;;
65936;SDS011;52707;52.086;5.418;2023-03-14T08:32:01;9.07;;;1.30;;
65936;SDS011;52707;52.086;5.418;2023-03-14T08:34:27;9.27;;;1.10;;
65936;SDS011;52707;52.086;5.418;2023-03-14T08:36:53;5.50;;;0.70;;
65936;SDS011;52707;52.086;5.418;2023-03-14T08:39:22;6.65;;;1.08;;
65936;SDS011;52707;52.086;5.418;2023-03-14T08:41:49;5.15;;;0.90;;
65936;SDS011;52707;52.086;5.418;2023-03-14T08:44:15;6.55;;;0.93;;
65936;SDS011;52707;52.086;5.418;2023-03-14T08:46:45;5.15;;;0.90;;
65936;SDS011;52707;52.086;5.418;2023-03-14T08:49:12;2.97;;;0.90;;
65936;SDS011;52707;52.086;5.418;2023-03-14T08:51:39;4.53;;;0.90;;
65936;SDS011;52707;52.086;5.418;2023-03-14T08:54:05;4.38;;;0.60;;
65936;SDS011;52707;52.086;5.418;2023-03-14T08:56:32;4.65;;;0.82;;
65936;SDS011;52707;52.086;5.418;2023-03-14T08:58:58;6.07;;;0.70;;
65936;SDS011;52707;52.086;5.418;2023-03-14T09:01:24;5.88;;;0.82;;
65936;SDS011;52707;52.086;5.418;2023-03-14T09:03:52;11.82;;;1.15;;
65936;SDS011;52707;52.086;5.418;2023-03-14T09:06:18;9.57;;;1.30;;
65936;SDS011;52707;52.086;5.418;2023-03-14T09:08:45;6.68;;;1.02;;
65936;SDS011;52707;52.086;5.418;2023-03-14T09:11:12;8.27;;;1.60;;
65936;SDS011;52707;52.086;5.418;2023-03-14T09:13:38;13.27;;;1.75;;
65936;SDS011;52707;52.086;5.418;2023-03-14T09:16:05;10.98;;;1.83;;
65936;SDS011;52707;52.086;5.418;2023-03-14T09:18:31;12.02;;;1.85;;
65936;SDS011;52707;52.086;5.418;2023-03-14T09:20:58;13.35;;;1.75;;
65936;SDS011;52707;52.086;5.418;2023-03-14T09:23:24;12.05;;;2.20;;
65936;SDS011;52707;52.086;5.418;2023-03-14T09:25:54;15.05;;;2.17;;
65936;SDS011;52707;52.086;5.418;2023-03-14T09:28:20;9.67;;;1.40;;
65936;SDS011;52707;52.086;5.418;2023-03-14T09:30:47;10.38;;;1.70;;
65936;SDS011;52707;52.086;5.418;2023-03-14T09:33:13;12.88;;;2.38;;
65936;SDS011;52707;52.086;5.418;2023-03-14T09:35:39;11.50;;;2.00;;
65936;SDS011;52707;52.086;5.418;2023-03-14T09:38:06;21.65;;;2.75;;
65936;SDS011;52707;52.086;5.418;2023-03-14T09:40:34;22.77;;;2.30;;
65936;SDS011;52707;52.086;5.418;2023-03-14T09:43:00;19.33;;;2.35;;
65936;SDS011;52707;52.086;5.418;2023-03-14T09:45:36;15.77;;;2.00;;
65936;SDS011;52707;52.086;5.418;2023-03-14T09:48:04;17.92;;;3.25;;
65936;SDS011;52707;52.086;5.418;2023-03-14T09:50:33;13.32;;;2.30;;
65936;SDS011;52707;52.086;5.418;2023-03-14T09:53:04;17.92;;;2.30;;
65936;SDS011;52707;52.086;5.418;2023-03-14T09:55:32;25.92;;;3.13;;
65936;SDS011;52707;52.086;5.418;2023-03-14T09:58:03;13.90;;;3.20;;
65936;SDS011;52707;52.086;5.418;2023-03-14T10:00:34;22.20;;;2.20;;
65936;SDS011;52707;52.086;5.418;2023-03-14T10:03:14;28.52;;;3.33;;
65936;SDS011;52707;52.086;5.418;2023-03-14T10:05:44;20.77;;;2.40;;
65936;SDS011;52707;52.086;5.418;2023-03-14T10:08:11;20.58;;;3.10;;
65936;SDS011;52707;52.086;5.418;2023-03-14T10:10:38;26.83;;;2.95;;
65936;SDS011;52707;52.086;5.418;2023-03-14T10:13:24;30.02;;;3.47;;
65936;SDS011;52707;52.086;5.418;2023-03-14T10:15:58;23.23;;;3.28;;
65936;SDS011;52707;52.086;5.418;2023-03-14T10:18:25;22.35;;;2.88;;
65936;SDS011;52707;52.086;5.418;2023-03-14T10:21:09;17.88;;;2.92;;
65936;SDS011;52707;52.086;5.418;2023-03-14T10:23:42;23.50;;;3.35;;
65936;SDS011;52707;52.086;5.418;2023-03-14T10:26:13;20.85;;;3.50;;
65936;SDS011;52707;52.086;5.418;2023-03-14T10:31:06;16.40;;;2.70;;
65936;SDS011;52707;52.086;5.418;2023-03-14T10:33:33;12.88;;;2.78;;
65936;SDS011;52707;52.086;5.418;2023-03-14T10:38:35;24.30;;;2.90;;
65936;SDS011;52707;52.086;5.418;2023-03-14T10:41:03;38.40;;;4.40;;
65936;SDS011;52707;52.086;5.418;2023-03-14T10:43:39;32.65;;;3.42;;
65936;SDS011;52707;52.086;5.418;2023-03-14T10:46:17;22.73;;;3.22;;
65936;SDS011;52707;52.086;5.418;2023-03-14T10:48:43;31.25;;;4.50;;
65936;SDS011;52707;52.086;5.418;2023-03-14T10:53:42;26.85;;;3.65;;
65936;SDS011;52707;52.086;5.418;2023-03-14T10:56:12;32.38;;;3.83;;
65936;SDS011;52707;52.086;5.418;2023-03-14T10:58:40;31.42;;;4.60;;
65936;SDS011;52707;52.086;5.418;2023-03-14T11:01:16;30.63;;;4.00;;
65936;SDS011;52707;52.086;5.418;2023-03-14T11:03:52;29.33;;;4.18;;
65936;SDS011;52707;52.086;5.418;2023-03-14T11:11:22;29.95;;;3.95;;
65936;SDS011;52707;52.086;5.418;2023-03-14T11:13:54;28.85;;;4.10;;
65936;SDS011;52707;52.086;5.418;2023-03-14T11:26:36;18.52;;;3.33;;
65936;SDS011;52707;52.086;5.418;2023-03-14T11:31:48;18.83;;;2.80;;
65936;SDS011;52707;52.086;5.418;2023-03-14T11:34:16;21.08;;;3.45;;
65936;SDS011;52707;52.086;5.418;2023-03-14T11:39:16;18.00;;;3.08;;
65936;SDS011;52707;52.086;5.418;2023-03-14T11:41:44;26.42;;;3.40;;
65936;SDS011;52707;52.086;5.418;2023-03-14T11:44:30;18.75;;;3.17;;
65936;SDS011;52707;52.086;5.418;2023-03-14T11:47:11;13.15;;;3.20;;
65936;SDS011;52707;52.086;5.418;2023-03-14T11:49:43;18.85;;;3.10;;
65936;SDS011;52707;52.086;5.418;2023-03-14T11:57:21;17.98;;;4.13;;
65936;SDS011;52707;52.086;5.418;2023-03-14T12:10:27;10.93;;;2.20;;
65936;SDS011;52707;52.086;5.418;2023-03-14T12:12:53;13.32;;;2.78;;
65936;SDS011;52707;52.086;5.418;2023-03-14T12:15:20;18.90;;;3.10;;
65936;SDS011;52707;52.086;5.418;2023-03-14T12:17:47;10.20;;;2.40;;
65936;SDS011;52707;52.086;5.418;2023-03-14T12:20:21;12.15;;;3.00;;
65936;SDS011;52707;52.086;5.418;2023-03-14T12:22:48;12.57;;;3.25;;
65936;SDS011;52707;52.086;5.418;2023-03-14T12:27:43;11.00;;;2.08;;
65936;SDS011;52707;52.086;5.418;2023-03-14T12:30:15;9.82;;;2.30;;
65936;SDS011;52707;52.086;5.418;2023-03-14T12:32:42;9.57;;;2.67;;
65936;SDS011;52707;52.086;5.418;2023-03-14T12:40:41;13.05;;;2.65;;
65936;SDS011;52707;52.086;5.418;2023-03-14T12:43:27;11.57;;;2.38;;
65936;SDS011;52707;52.086;5.418;2023-03-14T12:46:15;11.38;;;2.30;;
65936;SDS011;52707;52.086;5.418;2023-03-14T12:48:40;13.43;;;2.65;;
65936;SDS011;52707;52.086;5.418;2023-03-14T12:51:13;12.18;;;1.90;;
65936;SDS011;52707;52.086;5.418;2023-03-14T12:53:46;34.90;;;2.55;;
65936;SDS011;52707;52.086;5.418;2023-03-14T12:59:05;10.02;;;2.53;;
65936;SDS011;52707;52.086;5.418;2023-03-14T13:01:35;15.68;;;2.80;;
65936;SDS011;52707;52.086;5.418;2023-03-14T13:04:07;9.07;;;1.90;;
65936;SDS011;52707;52.086;5.418;2023-03-14T13:12:02;8.77;;;2.17;;
65936;SDS011;52707;52.086;5.418;2023-03-14T13:14:30;7.30;;;1.88;;
65936;SDS011;52707;52.086;5.418;2023-03-14T13:16:59;8.52;;;1.50;;
65936;SDS011;52707;52.086;5.418;2023-03-14T13:19:48;6.00;;;1.80;;
65936;SDS011;52707;52.086;5.418;2023-03-14T13:22:24;8.18;;;1.73;;
65936;SDS011;52707;52.086;5.418;2023-03-14T13:25:02;7.43;;;1.60;;
65936;SDS011;52707;52.086;5.418;2023-03-14T13:27:29;12.88;;;1.73;;
65936;SDS011;52707;52.086;5.418;2023-03-14T13:29:56;7.78;;;1.65;;
65936;SDS011;52707;52.086;5.418;2023-03-14T13:32:26;7.03;;;1.75;;
65936;SDS011;52707;52.086;5.418;2023-03-14T13:34:58;13.35;;;1.40;;
65936;SDS011;52707;52.086;5.418;2023-03-14T13:37:25;8.10;;;1.70;;
65936;SDS011;52707;52.086;5.418;2023-03-14T13:39:53;15.68;;;2.20;;
65936;SDS011;52707;52.086;5.418;2023-03-14T13:42:24;12.48;;;1.70;;
65936;SDS011;52707;52.086;5.418;2023-03-14T13:44:53;5.10;;;1.50;;
65936;SDS011;52707;52.086;5.418;2023-03-14T13:47:20;8.95;;;2.10;;
65936;SDS011;52707;52.086;5.418;2023-03-14T13:49:48;10.82;;;2.25;;
65936;SDS011;52707;52.086;5.418;2023-03-14T13:52:48;12.45;;;1.65;;
65936;SDS011;52707;52.086;5.418;2023-03-14T13:55:14;10.40;;;1.85;;
65936;SDS011;52707;52.086;5.418;2023-03-14T13:57:48;7.72;;;1.38;;
65936;SDS011;52707;52.086;5.418;2023-03-14T14:00:18;8.48;;;2.10;;
65936;SDS011;52707;52.086;5.418;2023-03-14T14:02:45;14.30;;;2.25;;
65936;SDS011;52707;52.086;5.418;2023-03-14T14:05:12;10.63;;;1.98;;
65936;SDS011;52707;52.086;5.418;2023-03-14T14:07:39;9.20;;;1.98;;
65936;SDS011;52707;52.086;5.418;2023-03-14T14:10:05;6.57;;;1.73;;
65936;SDS011;52707;52.086;5.418;2023-03-14T14:12:35;11.88;;;2.10;;
65936;SDS011;52707;52.086;5.418;2023-03-14T14:17:34;16.83;;;2.10;;
65936;SDS011;52707;52.086;5.418;2023-03-14T14:20:02;14.05;;;2.40;;
65936;SDS011;52707;52.086;5.418;2023-03-14T14:22:31;12.43;;;2.53;;
65936;SDS011;52707;52.086;5.418;2023-03-14T14:24:58;10.82;;;2.00;;
65936;SDS011;52707;52.086;5.418;2023-03-14T14:27:30;10.82;;;1.90;;
65936;SDS011;52707;52.086;5.418;2023-03-14T14:30:02;18.48;;;2.33;;
65936;SDS011;52707;52.086;5.418;2023-03-14T14:32:36;13.25;;;1.90;;
65936;SDS011;52707;52.086;5.418;2023-03-14T14:35:03;10.20;;;2.25;;
65936;SDS011;52707;52.086;5.418;2023-03-14T14:37:31;11.77;;;2.00;;
65936;SDS011;52707;52.086;5.418;2023-03-14T14:39:59;9.15;;;1.98;;
65936;SDS011;52707;52.086;5.418;2023-03-14T14:42:29;15.50;;;2.80;;
65936;SDS011;52707;52.086;5.418;2023-03-14T14:44:57;6.72;;;1.70;;
65936;SDS011;52707;52.086;5.418;2023-03-14T14:47:24;9.23;;;1.48;;
65936;SDS011;52707;52.086;5.418;2023-03-14T14:49:51;5.50;;;1.45;;
65936;SDS011;52707;52.086;5.418;2023-03-14T14:52:27;8.43;;;1.67;;
65936;SDS011;52707;52.086;5.418;2023-03-14T14:55:00;7.90;;;1.70;;
65936;SDS011;52707;52.086;5.418;2023-03-14T14:57:33;8.18;;;1.92;;
65936;SDS011;52707;52.086;5.418;2023-03-14T15:00:05;11.52;;;1.30;;
65936;SDS011;52707;52.086;5.418;2023-03-14T15:02:39;6.40;;;1.45;;
65936;SDS011;52707;52.086;5.418;2023-03-14T15:07:39;8.40;;;1.45;;
65936;SDS011;52707;52.086;5.418;2023-03-14T15:10:06;11.77;;;1.67;;
65936;SDS011;52707;52.086;5.418;2023-03-14T15:12:32;11.65;;;1.50;;
65936;SDS011;52707;52.086;5.418;2023-03-14T15:14:59;8.95;;;1.63;;
65936;SDS011;52707;52.086;5.418;2023-03-14T15:17:25;8.60;;;1.50;;
65936;SDS011;52707;52.086;5.418;2023-03-14T15:19:51;11.40;;;1.70;;
65936;SDS011;52707;52.086;5.418;2023-03-14T15:22:18;10.13;;;1.70;;
65936;SDS011;52707;52.086;5.418;2023-03-14T15:24:45;6.72;;;1.30;;
65936;SDS011;52707;52.086;5.418;2023-03-14T15:27:12;7.45;;;1.40;;
65936;SDS011;52707;52.086;5.418;2023-03-14T15:29:39;6.32;;;1.63;;
65936;SDS011;52707;52.086;5.418;2023-03-14T15:32:05;13.45;;;1.95;;
65936;SDS011;52707;52.086;5.418;2023-03-14T15:34:32;9.25;;;1.77;;
65936;SDS011;52707;52.086;5.418;2023-03-14T15:36:59;10.27;;;1.70;;
65936;SDS011;52707;52.086;5.418;2023-03-14T15:39:25;7.60;;;1.30;;
65936;SDS011;52707;52.086;5.418;2023-03-14T15:41:52;9.63;;;1.60;;
65936;SDS011;52707;52.086;5.418;2023-03-14T15:44:18;5.53;;;1.23;;
65936;SDS011;52707;52.086;5.418;2023-03-14T15:46:44;5.90;;;1.35;;
65936;SDS011;52707;52.086;5.418;2023-03-14T15:49:11;6.47;;;1.58;;
65936;SDS011;52707;52.086;5.418;2023-03-14T15:51:37;9.77;;;2.00;;
65936;SDS011;52707;52.086;5.418;2023-03-14T15:54:03;7.45;;;1.25;;